SBTT/TBT METAR and TAF weather

Enter ICAO airport designator
Station Type Date Time Source
SBTT METAR 2019/06/18 23:00 UTC NOAA

SBTT 182300Z 31002KT CAVOK 27/24 Q1012


Station Type Date Time Source
SBTT Decoded METAR 2019/06/18 23:00 UTC NOAA

Tabatinga, Brazil (SBTT) 03-40S 069-40W
Jun 18, 2019 - 07:00 PM EDT / 2019.06.18 2300 UTC
Wind: from the NW (310 degrees) at 2 MPH (2 KT):0
Visibility: greater than 7 mile(s):0
Temperature: 80 F (27 C)
Dew Point: 75 F (24 C)
Relative Humidity: 83%
Pressure (altimeter): 29.88 in. Hg (1012 hPa)
ob: SBTT 182300Z 31002KT CAVOK 27/24 Q1012
cycle: 23

Station Type Date Time Source
SBTT TAF 2019/06/19 00:33 UTC NOAA

TAF TAF SBTT 182100Z 1900/1924 36005KT 9999 SCT025 TN23/1910Z TX32/1918Z
BECMG 1910/1913 06005KT 7000 SCT015
BECMG 1915/1917 31007KT 9999 SCT020
BECMG 1918/1919 SCT020 FEW030TCU PROB40 1919/1922 10010KT 5000 TSRA BKN015 FEW025CB
RMK PGB

Example: see airport list